Impacts TAF Board INFO
FOR SITUATIONAL AWARENESS. NOT TO BE USED FOR FLIGHT PLANNING PURPOSES.
IDs:

KSAN - San Diego Intl Arpt, CA, US

Issued at 0841 UTC 22 Sep 2017
Updated at 0937 UTC 22 Sep 2017
Potential Impact None Slight Moderate High
Time0851Z 22/10Z 22/11Z 22/12Z 22/13Z 22/14Z 22/15Z 22/16Z 22/17Z 22/18Z 22/19Z 22/20Z 22/21Z 22/22Z>>
Type OBS PRVL PRVL
  [TEMP]  
PRVL
  [TEMP]  
PRVL
  [TEMP]  
PRVL
  [TEMP]  
PRVL PRVL PRVL PRVL PRVL PRVL PRVL PRVL
VIS 10 >6 >6 >6 >6 >6 >6 >6 >6 >6 >6 >6 >6 >6
CIG -- 35 35
  [25]  
35
  [25]  
35
  [25]  
35
  [25]  
35 35 35 35 35 -- -- --
Cover SCT BKN BKN
  [BKN]  
BKN
  [BKN]  
BKN
  [BKN]  
BKN
  [BKN]  
BKN BKN BKN BKN BKN SCT SCT SCT
FltCat VFR VFR VFR
  [MVFR]  
VFR
  [MVFR]  
VFR
  [MVFR]  
VFR
  [MVFR]  
VFR VFR VFR VFR VFR VFR VFR VFR
WX -- -- --
  [--]  
--
  [--]  
--
  [--]  
--
  [--]  
-- -- -- -- -- -- -- --
WDir 100 VRB VRB
[VRB]
VRB
[VRB]
VRB
[VRB]
VRB
[VRB]
VRB VRB VRB VRB VRB 270 270 270
WSpd 3 3 3
  [3]  
3
  [3]  
3
  [3]  
3
  [3]  
3 3 3 3 3 11 11 11
WGst -- -- --
  [--]  
--
  [--]  
--
  [--]  
--
  [--]  
-- -- -- -- -- 18 18 18

Raw TAF
KSAN 220841Z 2209/2312 VRB03KT P6SM SCT025 BKN035
  TEMPO 2211/2215 BKN025
  FM222000 27011G18KT P6SM SCT025 SCT035
  FM230300 VRB05KT P6SM SCT025 SCT035
  FM230700 VRB05KT P6SM BKN025


Raw METAR
KSAN 220851Z 10003KT 10SM FEW032 SCT039 18/11 A2987 RMK AO2 SLP114 T01780111 55005
KSAN 220751Z 24003KT 10SM BKN034 19/12 A2987 RMK AO2 SLP113 T01890117 402330183
KSAN 220651Z 23005KT 10SM BKN033 BKN044 19/12 A2987 RMK AO2 SLP115 T01890122

METAR Board
Radar Display
Forecast Discussion

FOR SITUATIONAL AWARENESS. NOT TO BE USED FOR FLIGHT PLANNING PURPOSES.